sensor_id;sensor_type;location;lat;lon;timestamp;pressure;altitude;pressure_sealevel;temperature;humidity
27864;BME280;15980;51.092;13.916;2023-04-05T00:09:50;99420.44;;;1.65;71.03
27864;BME280;15980;51.092;13.916;2023-04-05T00:19:51;99412.31;;;1.54;72.36
27864;BME280;15980;51.092;13.916;2023-04-05T00:29:51;99401.50;;;1.60;73.34
27864;BME280;15980;51.092;13.916;2023-04-05T00:39:51;99394.44;;;1.53;72.69
27864;BME280;15980;51.092;13.916;2023-04-05T00:49:52;99391.75;;;1.58;73.78
27864;BME280;15980;51.092;13.916;2023-04-05T00:59:52;99381.75;;;1.59;74.44
27864;BME280;15980;51.092;13.916;2023-04-05T01:19:55;99376.91;;;1.71;74.27
27864;BME280;15980;51.092;13.916;2023-04-05T01:30:20;99376.41;;;1.74;74.22
27864;BME280;15980;51.092;13.916;2023-04-05T01:40:22;99358.50;;;1.63;75.22
27864;BME280;15980;51.092;13.916;2023-04-05T01:50:23;99344.69;;;1.54;73.68
27864;BME280;15980;51.092;13.916;2023-04-05T02:00:24;99349.59;;;1.68;69.77
27864;BME280;15980;51.092;13.916;2023-04-05T02:10:24;99358.53;;;1.73;66.50
27864;BME280;15980;51.092;13.916;2023-04-05T02:20:24;99356.91;;;1.72;67.01
27864;BME280;15980;51.092;13.916;2023-04-05T02:30:24;99340.47;;;1.89;66.68
27864;BME280;15980;51.092;13.916;2023-04-05T02:40:25;99345.34;;;1.92;66.78
27864;BME280;15980;51.092;13.916;2023-04-05T02:50:25;99348.03;;;1.87;65.79
27864;BME280;15980;51.092;13.916;2023-04-05T03:00:25;99333.41;;;1.83;66.24
27864;BME280;15980;51.092;13.916;2023-04-05T03:10:26;99322.59;;;1.78;65.88
27864;BME280;15980;51.092;13.916;2023-04-05T03:20:26;99327.75;;;1.84;65.99
27864;BME280;15980;51.092;13.916;2023-04-05T03:30:26;99321.22;;;1.75;64.81
27864;BME280;15980;51.092;13.916;2023-04-05T03:40:27;99324.44;;;1.72;65.11
27864;BME280;15980;51.092;13.916;2023-04-05T03:50:27;99331.78;;;1.77;65.78
27864;BME280;15980;51.092;13.916;2023-04-05T04:00:28;99325.78;;;1.60;66.22
27864;BME280;15980;51.092;13.916;2023-04-05T04:10:28;99326.59;;;1.70;66.56
27864;BME280;15980;51.092;13.916;2023-04-05T04:20:28;99325.50;;;1.66;66.51
27864;BME280;15980;51.092;13.916;2023-04-05T04:30:28;99327.13;;;1.57;67.13
27864;BME280;15980;51.092;13.916;2023-04-05T04:40:38;99332.38;;;1.21;67.90
27864;BME280;15980;51.092;13.916;2023-04-05T04:50:38;99320.66;;;0.96;69.43
27864;BME280;15980;51.092;13.916;2023-04-05T05:00:42;99320.53;;;0.80;70.57
27864;BME280;15980;51.092;13.916;2023-04-05T05:10:43;99319.41;;;0.71;70.84
27864;BME280;15980;51.092;13.916;2023-04-05T05:20:44;99321.56;;;0.69;70.73
27864;BME280;15980;51.092;13.916;2023-04-05T05:30:44;99331.91;;;0.82;70.26
27864;BME280;15980;51.092;13.916;2023-04-05T05:40:44;99333.88;;;0.97;70.42
27864;BME280;15980;51.092;13.916;2023-04-05T05:50:45;99331.28;;;1.17;70.09
27864;BME280;15980;51.092;13.916;2023-04-05T06:00:46;99330.56;;;1.37;69.37
27864;BME280;15980;51.092;13.916;2023-04-05T06:10:47;99331.44;;;1.58;68.15
27864;BME280;15980;51.092;13.916;2023-04-05T06:20:47;99337.47;;;1.75;66.58
27864;BME280;15980;51.092;13.916;2023-04-05T06:30:47;99337.50;;;1.96;65.37
27864;BME280;15980;51.092;13.916;2023-04-05T06:40:48;99330.50;;;2.30;65.04
27864;BME280;15980;51.092;13.916;2023-04-05T06:51:01;99332.38;;;2.50;63.97
27864;BME280;15980;51.092;13.916;2023-04-05T07:01:02;99326.69;;;2.67;63.45
27864;BME280;15980;51.092;13.916;2023-04-05T07:11:02;99337.25;;;2.73;63.18
27864;BME280;15980;51.092;13.916;2023-04-05T07:21:02;99330.41;;;3.11;61.99
27864;BME280;15980;51.092;13.916;2023-04-05T07:31:05;99337.09;;;3.34;61.30
27864;BME280;15980;51.092;13.916;2023-04-05T07:41:05;99327.97;;;3.69;59.86
27864;BME280;15980;51.092;13.916;2023-04-05T07:51:07;99320.59;;;3.80;58.73
27864;BME280;15980;51.092;13.916;2023-04-05T08:01:08;99323.31;;;3.80;57.33
27864;BME280;15980;51.092;13.916;2023-04-05T08:11:09;99313.69;;;4.03;55.52
27864;BME280;15980;51.092;13.916;2023-04-05T08:21:10;99316.44;;;4.32;54.56
27864;BME280;15980;51.092;13.916;2023-04-05T08:31:10;99317.63;;;4.55;51.08
27864;BME280;15980;51.092;13.916;2023-04-05T08:41:16;99304.84;;;5.08;50.58
27864;BME280;15980;51.092;13.916;2023-04-05T08:51:20;99314.69;;;5.04;50.73
27864;BME280;15980;51.092;13.916;2023-04-05T09:01:21;99316.19;;;5.39;48.61
27864;BME280;15980;51.092;13.916;2023-04-05T09:11:22;99303.19;;;6.49;46.13
27864;BME280;15980;51.092;13.916;2023-04-05T09:21:22;99298.44;;;7.28;44.78
27864;BME280;15980;51.092;13.916;2023-04-05T09:41:30;99300.97;;;7.24;44.87
27864;BME280;15980;51.092;13.916;2023-04-05T09:51:32;99294.19;;;7.36;44.12
27864;BME280;15980;51.092;13.916;2023-04-05T10:01:33;99293.19;;;7.95;43.11
27864;BME280;15980;51.092;13.916;2023-04-05T10:11:37;99279.16;;;8.69;41.33
27864;BME280;15980;51.092;13.916;2023-04-05T10:21:40;99272.97;;;8.63;37.49
27864;BME280;15980;51.092;13.916;2023-04-05T10:31:49;99260.50;;;9.76;37.56
27864;BME280;15980;51.092;13.916;2023-04-05T10:42:01;99265.47;;;8.69;38.58
27864;BME280;15980;51.092;13.916;2023-04-05T10:52:06;99249.78;;;8.16;41.60
27864;BME280;15980;51.092;13.916;2023-04-05T11:02:08;99260.88;;;8.56;41.07
27864;BME280;15980;51.092;13.916;2023-04-05T11:12:08;99263.28;;;9.19;39.05
27864;BME280;15980;51.092;13.916;2023-04-05T11:22:09;99243.22;;;9.58;37.24
27864;BME280;15980;51.092;13.916;2023-04-05T11:32:12;99235.31;;;10.52;36.59
27864;BME280;15980;51.092;13.916;2023-04-05T11:42:13;99229.53;;;10.36;36.17
27864;BME280;15980;51.092;13.916;2023-04-05T11:52:19;99236.91;;;8.61;39.15
27864;BME280;15980;51.092;13.916;2023-04-05T12:02:20;99233.63;;;8.73;39.21
27864;BME280;15980;51.092;13.916;2023-04-05T12:12:21;99225.44;;;9.21;37.95
27864;BME280;15980;51.092;13.916;2023-04-05T12:22:21;99222.44;;;9.66;36.89
27864;BME280;15980;51.092;13.916;2023-04-05T12:32:21;99213.25;;;9.70;37.79
27864;BME280;15980;51.092;13.916;2023-04-05T12:42:22;99210.81;;;8.86;39.36
27864;BME280;15980;51.092;13.916;2023-04-05T12:52:25;99204.75;;;8.67;39.09
27864;BME280;15980;51.092;13.916;2023-04-05T13:02:26;99208.03;;;9.17;37.16
27864;BME280;15980;51.092;13.916;2023-04-05T13:12:26;99205.47;;;9.29;37.28
27864;BME280;15980;51.092;13.916;2023-04-05T13:22:27;99210.84;;;8.95;38.97
27864;BME280;15980;51.092;13.916;2023-04-05T13:32:27;99193.56;;;8.46;40.35
27864;BME280;15980;51.092;13.916;2023-04-05T13:42:27;99192.25;;;8.74;39.78
27864;BME280;15980;51.092;13.916;2023-04-05T13:52:28;99177.28;;;8.72;39.54
27864;BME280;15980;51.092;13.916;2023-04-05T14:02:28;99171.03;;;8.80;38.62
27864;BME280;15980;51.092;13.916;2023-04-05T14:12:29;99170.88;;;8.76;39.25
27864;BME280;15980;51.092;13.916;2023-04-05T14:22:29;99162.19;;;8.83;39.55
27864;BME280;15980;51.092;13.916;2023-04-05T14:32:29;99154.94;;;8.78;40.30
27864;BME280;15980;51.092;13.916;2023-04-05T14:42:29;99153.06;;;8.57;40.92
27864;BME280;15980;51.092;13.916;2023-04-05T14:52:30;99143.41;;;9.07;40.11
27864;BME280;15980;51.092;13.916;2023-04-05T15:02:30;99140.56;;;9.21;40.07
27864;BME280;15980;51.092;13.916;2023-04-05T15:12:31;99139.97;;;8.85;39.56
27864;BME280;15980;51.092;13.916;2023-04-05T15:22:31;99138.72;;;7.89;40.46
27864;BME280;15980;51.092;13.916;2023-04-05T15:32:32;99128.59;;;8.20;41.51
27864;BME280;15980;51.092;13.916;2023-04-05T15:42:33;99123.88;;;8.74;40.50
27864;BME280;15980;51.092;13.916;2023-04-05T15:52:34;99133.44;;;8.55;41.45
27864;BME280;15980;51.092;13.916;2023-04-05T16:02:36;99145.91;;;7.85;42.56
27864;BME280;15980;51.092;13.916;2023-04-05T16:12:36;99137.53;;;7.59;43.08
27864;BME280;15980;51.092;13.916;2023-04-05T16:22:37;99145.25;;;6.93;45.28
27864;BME280;15980;51.092;13.916;2023-04-05T16:32:37;99147.31;;;6.60;46.08
27864;BME280;15980;51.092;13.916;2023-04-05T16:42:38;99156.28;;;6.47;46.17
27864;BME280;15980;51.092;13.916;2023-04-05T16:52:38;99158.03;;;6.57;46.43
27864;BME280;15980;51.092;13.916;2023-04-05T17:02:38;99144.28;;;6.62;47.96
27864;BME280;15980;51.092;13.916;2023-04-05T17:12:39;99147.53;;;6.50;50.62
27864;BME280;15980;51.092;13.916;2023-04-05T17:22:39;99146.13;;;6.07;52.26
27864;BME280;15980;51.092;13.916;2023-04-05T17:32:40;99145.69;;;5.67;54.19
27864;BME280;15980;51.092;13.916;2023-04-05T17:42:40;99152.56;;;5.27;55.84
27864;BME280;15980;51.092;13.916;2023-04-05T17:52:40;99154.22;;;5.04;57.67
27864;BME280;15980;51.092;13.916;2023-04-05T18:02:42;99163.56;;;4.74;58.45
27864;BME280;15980;51.092;13.916;2023-04-05T18:12:42;99172.44;;;4.37;60.06
27864;BME280;15980;51.092;13.916;2023-04-05T18:22:42;99184.97;;;4.04;59.91
27864;BME280;15980;51.092;13.916;2023-04-05T18:32:43;99185.78;;;3.70;61.75
27864;BME280;15980;51.092;13.916;2023-04-05T18:42:43;99196.72;;;3.60;64.52
27864;BME280;15980;51.092;13.916;2023-04-05T18:52:43;99201.00;;;3.66;64.73
27864;BME280;15980;51.092;13.916;2023-04-05T19:02:44;99205.88;;;3.69;66.02
27864;BME280;15980;51.092;13.916;2023-04-05T19:12:44;99209.66;;;3.68;65.80
27864;BME280;15980;51.092;13.916;2023-04-05T19:22:44;99211.81;;;3.71;67.16
27864;BME280;15980;51.092;13.916;2023-04-05T19:32:44;99216.72;;;3.69;68.39
27864;BME280;15980;51.092;13.916;2023-04-05T19:42:45;99227.63;;;3.64;67.55
27864;BME280;15980;51.092;13.916;2023-04-05T19:52:46;99227.63;;;3.64;69.22
27864;BME280;15980;51.092;13.916;2023-04-05T20:02:47;99211.63;;;3.63;70.05
27864;BME280;15980;51.092;13.916;2023-04-05T20:12:48;99204.31;;;3.58;70.38
27864;BME280;15980;51.092;13.916;2023-04-05T20:22:48;99203.59;;;3.42;70.44
27864;BME280;15980;51.092;13.916;2023-04-05T20:32:48;99195.25;;;3.34;70.88
27864;BME280;15980;51.092;13.916;2023-04-05T20:42:49;99189.09;;;3.18;71.89
27864;BME280;15980;51.092;13.916;2023-04-05T20:52:49;99179.69;;;3.05;72.47
27864;BME280;15980;51.092;13.916;2023-04-05T21:02:49;99180.81;;;2.94;72.33
27864;BME280;15980;51.092;13.916;2023-04-05T21:12:50;99182.50;;;2.80;73.08
27864;BME280;15980;51.092;13.916;2023-04-05T21:22:50;99180.13;;;2.68;72.91
27864;BME280;15980;51.092;13.916;2023-04-05T21:32:50;99171.75;;;2.49;73.67
27864;BME280;15980;51.092;13.916;2023-04-05T21:42:51;99166.16;;;2.26;74.36
27864;BME280;15980;51.092;13.916;2023-04-05T21:52:51;99163.19;;;2.07;75.21
27864;BME280;15980;51.092;13.916;2023-04-05T22:02:51;99156.72;;;1.93;76.45
27864;BME280;15980;51.092;13.916;2023-04-05T22:12:52;99151.84;;;1.69;75.93
27864;BME280;15980;51.092;13.916;2023-04-05T22:22:52;99143.47;;;1.50;75.23
27864;BME280;15980;51.092;13.916;2023-04-05T22:32:52;99143.47;;;1.30;75.93
27864;BME280;15980;51.092;13.916;2023-04-05T22:42:53;99138.56;;;1.07;75.91
27864;BME280;15980;51.092;13.916;2023-04-05T22:52:53;99145.78;;;0.81;76.53
27864;BME280;15980;51.092;13.916;2023-04-05T23:02:53;99146.50;;;0.51;77.23
27864;BME280;15980;51.092;13.916;2023-04-05T23:12:54;99143.63;;;0.20;77.51
27864;BME280;15980;51.092;13.916;2023-04-05T23:22:54;99140.88;;;0.10;78.94
27864;BME280;15980;51.092;13.916;2023-04-05T23:32:54;99134.00;;;-0.08;79.23
27864;BME280;15980;51.092;13.916;2023-04-05T23:42:55;99139.56;;;-0.24;78.91
27864;BME280;15980;51.092;13.916;2023-04-05T23:52:55;99133.03;;;-0.34;79.24
